EDT,Max TemperatureF,Mean TemperatureF,Min TemperatureF,Max Dew PointF,MeanDew PointF,Min DewpointF,Max Humidity, Mean Humidity, Min Humidity, Max Sea Level PressureIn, Mean Sea Level PressureIn, Min Sea Level PressureIn, Max VisibilityMiles, Mean VisibilityMiles, Min VisibilityMiles, Max Wind SpeedMPH, Mean Wind SpeedMPH, Max Gust SpeedMPH,PrecipitationIn, CloudCover, Events, WindDirDegrees
2013-9-1,78,74,71,75,70,68,94,88,78,29.91,29.88,29.86,7,6,2,9,3,,0.00,7,Rain-Thunderstorm,180
2013-9-2,75,70,66,72,69,64,94,90,78,29.87,29.82,29.74,10,4,0,7,4,,0.00,7,Fog-Rain-Thunderstorm,152
2013-9-3,73,66,59,66,62,54,94,84,68,29.91,29.82,29.76,10,6,0,8,3,,0.01,5,Fog,328
2013-9-4,75,64,53,57,54,50,88,76,50,30.00,29.96,29.90,10,10,10,8,2,,0.00,0,,305
2013-9-5,69,61,53,57,50,39,88,68,43,30.17,30.02,29.93,10,10,10,16,4,25,0.00,1,,332
2013-9-6,66,55,44,43,40,36,82,62,42,30.27,30.20,30.15,10,10,0,12,6,,0.00,0,,17
2013-9-7,73,58,44,54,46,39,82,68,41,30.14,30.06,29.92,10,10,9,8,1,,0.00,2,,229
2013-9-8,75,63,51,61,52,43,77,67,38,30.12,29.93,29.82,10,10,10,21,5,32,0.00,4,,318
2013-9-9,68,55,42,52,43,37,81,66,45,30.26,30.19,30.12,10,10,10,9,5,,0.00,0,,176
2013-9-10,78,68,59,70,62,52,94,83,74,30.20,30.14,30.09,10,7,1,12,6,18,0.05,6,Rain,217
2013-9-11,91,80,69,77,70,66,94,81,59,30.16,30.09,30.03,10,5,0,13,4,20,0.00,1,Fog,222
2013-9-12,82,75,68,72,67,64,88,83,66,30.02,29.88,29.72,8,4,1,14,3,18,0.13,4,Rain-Thunderstorm,209
2013-9-13,71,63,55,64,58,46,94,81,64,29.84,29.72,29.65,10,7,1,14,4,23,0.04,6,,323
2013-9-14,62,55,48,48,45,43,87,74,55,30.13,29.97,29.84,10,10,10,14,6,18,0.00,3,,338
2013-9-15,66,54,41,48,43,36,87,73,46,30.21,30.14,30.10,10,10,10,7,2,,0.00,0,,296
2013-9-16,66,58,48,52,48,39,88,74,52,30.27,30.12,30.06,10,10,10,16,4,23,0.00,3,Rain,359
2013-9-17,60,50,39,39,35,30,81,63,42,30.45,30.35,30.28,10,10,10,15,9,22,0.00,0,,25
2013-9-18,69,54,39,46,41,34,87,64,38,30.37,30.28,30.19,10,10,10,7,2,,0.00,0,,267
2013-9-19,73,60,46,52,48,41,87,63,38,30.19,30.14,30.09,10,10,9,7,3,,0.00,0,Fog,266
2013-9-20,75,60,46,57,49,43,88,79,47,30.12,30.08,30.03,10,9,0,10,2,,0.00,0,Fog,184
2013-9-21,71,63,55,64,58,52,94,85,77,30.05,29.91,29.70,10,9,2,18,6,25,0.00,7,,180
2013-9-22,68,60,50,64,48,37,94,68,55,29.92,29.79,29.67,10,9,2,16,11,24,0.35,4,Fog,319
2013-9-23,59,50,41,39,38,34,81,67,48,30.06,29.98,29.91,10,10,10,12,8,21,0.00,0,,342
2013-9-24,66,52,39,43,38,34,81,67,37,30.06,29.99,29.87,10,10,10,12,6,18,0.00,1,,345
2013-9-25,66,54,42,48,43,37,82,74,52,29.97,29.94,29.89,10,10,10,8,4,,0.00,0,,344
2013-9-26,64,57,50,52,48,45,88,76,56,30.13,30.04,29.97,10,10,10,9,5,,0.00,6,,46
2013-9-27,60,53,46,48,46,43,87,75,63,30.29,30.21,30.13,10,10,10,10,6,,0.00,4,,38
2013-9-28,71,58,46,54,47,41,87,77,50,30.34,30.30,30.25,10,10,10,8,2,,0.00,0,,51
2013-9-29,66,56,46,54,47,43,88,80,52,30.27,30.20,30.11,10,7,0,7,1,,0.00,3,Fog,68
2013-9-30,69,56,42,57,45,37,87,78,52,30.12,30.06,29.99,10,10,10,6,1,,0.00,0,,72